Kilmaurs, United Kingdom
Current Conditions -  °F | °C
As of 9:20 PM on Monday 24 Nov 2014 (Local Time) from EGPK Reporting Station
Light Rain Light Rain  
Wind Chill:   Ceiling: Unl
Heat Index:   Visibility: 5mi
Dew Point:   Wind: 8mph
Humidity: 87%   Direction: 200°SSW
Pressure: 30.27"   Gusts: NA
Location:  55.64°N, 4.53°W
Report Text: EGPK 242120Z 20007KT 8000 -RA FEW007 SCT011 08/06 Q1025
Loading
Personal Weather Stations






























Interactive Weather Map New forecast layout! Learn more

10-Day Weather Forecast

Advertisements
Track Severe Weather on mobile